createdAt,value
2023-02-05T00:01:49.420Z,4.13
2023-02-05T00:04:17.255Z,4.28
2023-02-05T00:06:45.398Z,4.32
2023-02-05T00:09:13.274Z,3.10
2023-02-05T00:11:41.084Z,3.53
2023-02-05T00:14:10.858Z,3.25
2023-02-05T00:16:38.884Z,4.35
2023-02-05T00:19:06.743Z,3.97
2023-02-05T00:21:34.662Z,4.20
2023-02-05T00:24:02.373Z,3.70
2023-02-05T00:26:30.132Z,3.92
2023-02-05T00:28:57.931Z,3.90
2023-02-05T00:31:28.255Z,3.88
2023-02-05T00:33:56.066Z,4.05
2023-02-05T00:36:27.433Z,2.85
2023-02-05T00:38:55.418Z,2.40
2023-02-05T00:41:23.236Z,3.17
2023-02-05T00:43:51.170Z,4.30
2023-02-05T00:46:18.954Z,3.72
2023-02-05T00:48:47.970Z,3.85
2023-02-05T00:51:15.724Z,3.67
2023-02-05T00:53:43.439Z,4.25
2023-02-05T00:56:11.392Z,3.60
2023-02-05T00:58:39.297Z,4.00
2023-02-05T01:01:07.551Z,4.30
2023-02-05T01:03:35.294Z,4.57
2023-02-05T01:06:04.477Z,4.55
2023-02-05T01:08:32.188Z,3.65
2023-02-05T01:11:00.044Z,3.22
2023-02-05T01:13:28.249Z,4.25
2023-02-05T01:15:56.039Z,3.65
2023-02-05T01:18:23.800Z,3.60
2023-02-05T01:20:51.625Z,4.47
2023-02-05T01:23:21.160Z,4.95
2023-02-05T01:25:49.030Z,3.72
2023-02-05T01:28:17.017Z,4.13
2023-02-05T01:30:48.638Z,4.43
2023-02-05T01:33:17.073Z,4.55
2023-02-05T01:35:44.963Z,4.82
2023-02-05T01:38:12.926Z,4.53
2023-02-05T01:40:42.324Z,3.63
2023-02-05T01:43:13.479Z,4.72
2023-02-05T01:46:07.869Z,3.80
2023-02-05T01:48:40.632Z,3.70
2023-02-05T01:51:11.982Z,4.32
2023-02-05T01:53:40.663Z,4.75
2023-02-05T01:56:13.454Z,4.82
2023-02-05T01:58:48.413Z,4.53
2023-02-05T02:01:16.608Z,3.60
2023-02-05T02:03:45.411Z,3.80
2023-02-05T02:06:13.182Z,4.53
2023-02-05T02:08:40.945Z,7.05
2023-02-05T02:11:14.269Z,4.40
2023-02-05T02:13:42.798Z,4.35
2023-02-05T02:16:10.673Z,4.22
2023-02-05T02:18:40.360Z,4.13
2023-02-05T02:21:30.650Z,4.20
2023-02-05T02:24:26.519Z,4.95
2023-02-05T02:27:23.355Z,3.63
2023-02-05T02:29:58.928Z,4.00
2023-02-05T02:32:34.296Z,4.00
2023-02-05T02:35:08.105Z,4.60
2023-02-05T02:37:41.062Z,3.85
2023-02-05T02:40:13.966Z,4.63
2023-02-05T02:42:46.834Z,4.32
2023-02-05T02:45:18.641Z,3.90
2023-02-05T02:47:51.597Z,4.20
2023-02-05T02:50:24.200Z,4.63
2023-02-05T02:52:55.799Z,4.28
2023-02-05T02:55:25.537Z,4.15
2023-02-05T02:57:55.978Z,4.47
2023-02-05T03:00:27.927Z,5.15
2023-02-05T03:03:01.279Z,4.88
2023-02-05T03:05:31.032Z,4.22
2023-02-05T03:08:03.078Z,4.85
2023-02-05T03:10:38.783Z,4.50
2023-02-05T03:13:06.539Z,4.47
2023-02-05T03:15:35.889Z,4.85
2023-02-05T03:18:03.913Z,4.50
2023-02-05T03:20:38.022Z,5.22
2023-02-05T03:23:05.823Z,4.68
2023-02-05T03:25:34.052Z,4.93
2023-02-05T03:28:02.090Z,4.03
2023-02-05T03:30:39.859Z,4.72
2023-02-05T03:33:21.663Z,5.13
2023-02-05T03:35:58.931Z,4.70
2023-02-05T03:38:40.244Z,4.80
2023-02-05T03:41:19.800Z,5.10
2023-02-05T03:43:55.672Z,4.93
2023-02-05T03:46:33.397Z,4.72
2023-02-05T03:49:08.059Z,4.28
2023-02-05T03:51:40.955Z,5.15
2023-02-05T03:54:17.558Z,4.00
2023-02-05T03:56:55.913Z,4.00
2023-02-05T03:59:25.110Z,4.68
2023-02-05T04:01:55.585Z,4.78
2023-02-05T04:04:23.500Z,4.78
2023-02-05T04:06:54.157Z,5.20
2023-02-05T04:09:21.913Z,3.75
2023-02-05T04:11:49.934Z,5.10
2023-02-05T04:14:17.828Z,4.75
2023-02-05T04:16:45.743Z,3.97
2023-02-05T04:19:14.825Z,3.90
2023-02-05T04:21:42.546Z,6.65
2023-02-05T04:24:10.363Z,4.70
2023-02-05T04:26:38.090Z,4.55
2023-02-05T04:29:05.919Z,22.42
2023-02-05T04:31:33.717Z,5.00
2023-02-05T04:34:01.431Z,4.80
2023-02-05T04:36:30.611Z,5.47
2023-02-05T04:38:58.344Z,5.43
2023-02-05T04:41:26.172Z,5.25
2023-02-05T04:43:53.877Z,4.38
2023-02-05T04:46:21.824Z,4.07
2023-02-05T04:48:49.592Z,4.10
2023-02-05T04:51:17.536Z,4.45
2023-02-05T04:53:47.072Z,4.43
2023-02-05T04:56:16.866Z,4.45
2023-02-05T04:58:45.527Z,4.68
2023-02-05T05:01:15.074Z,4.00
2023-02-05T05:03:43.470Z,4.60
2023-02-05T05:06:11.855Z,4.68
2023-02-05T05:08:40.167Z,4.50
2023-02-05T05:11:11.678Z,3.90
2023-02-05T05:13:39.566Z,4.93
2023-02-05T05:16:08.765Z,5.30
2023-02-05T05:18:36.523Z,4.75
2023-02-05T05:21:05.449Z,4.10
2023-02-05T05:23:34.163Z,4.68
2023-02-05T05:26:06.940Z,4.18
2023-02-05T05:28:36.725Z,4.60
2023-02-05T05:31:08.459Z,4.25
2023-02-05T05:33:36.582Z,3.60
2023-02-05T05:36:04.822Z,4.15
2023-02-05T05:38:32.613Z,4.32
2023-02-05T05:41:20.568Z,4.30
2023-02-05T05:43:50.644Z,4.32
2023-02-05T05:46:23.626Z,4.88
2023-02-05T05:48:52.204Z,4.68
2023-02-05T05:51:20.663Z,4.03
2023-02-05T05:53:48.903Z,4.88
2023-02-05T05:56:17.853Z,3.85
2023-02-05T05:58:46.167Z,3.97
2023-02-05T06:01:17.390Z,3.80
2023-02-05T06:03:45.077Z,6.45
2023-02-05T06:06:13.738Z,4.63
2023-02-05T06:08:41.586Z,4.60
2023-02-05T06:11:09.370Z,5.00
2023-02-05T06:13:37.241Z,5.13
2023-02-05T06:16:05.575Z,5.13
2023-02-05T06:18:34.748Z,4.78
2023-02-05T06:21:03.501Z,4.63
2023-02-05T06:23:31.336Z,4.57
2023-02-05T06:25:59.469Z,4.72
2023-02-05T06:28:27.242Z,4.85
2023-02-05T06:30:55.157Z,4.50
2023-02-05T06:33:22.966Z,4.55
2023-02-05T06:35:52.209Z,5.32
2023-02-05T06:38:19.995Z,5.20
2023-02-05T06:40:48.470Z,4.82
2023-02-05T06:43:16.429Z,4.97
2023-02-05T06:45:44.205Z,4.97
2023-02-05T06:48:12.019Z,4.80
2023-02-05T06:50:39.846Z,5.43
2023-02-05T06:53:11.080Z,4.38
2023-02-05T06:55:39.601Z,4.72
2023-02-05T06:58:07.750Z,5.20
2023-02-05T07:00:35.566Z,5.10
2023-02-05T07:03:03.468Z,5.68
2023-02-05T07:05:31.370Z,6.35
2023-02-05T07:07:59.801Z,5.40
2023-02-05T07:10:28.906Z,4.38
2023-02-05T07:12:56.661Z,4.90
2023-02-05T07:15:24.416Z,5.40
2023-02-05T07:17:52.184Z,5.30
2023-02-05T07:20:19.972Z,5.22
2023-02-05T07:22:48.206Z,5.72
2023-02-05T07:25:16.170Z,5.28
2023-02-05T07:27:45.398Z,5.22
2023-02-05T07:30:14.602Z,5.63
2023-02-05T07:32:42.338Z,5.97
2023-02-05T07:35:10.014Z,5.53
2023-02-05T07:37:39.451Z,5.97
2023-02-05T07:40:08.460Z,5.13
2023-02-05T07:42:36.247Z,5.50
2023-02-05T07:45:07.699Z,5.57
2023-02-05T07:47:35.418Z,5.22
2023-02-05T07:50:04.770Z,5.28
2023-02-05T07:52:32.728Z,5.15
2023-02-05T07:55:00.654Z,6.40
2023-02-05T07:57:28.526Z,5.22
2023-02-05T07:59:56.394Z,4.85
2023-02-05T08:02:25.528Z,4.60
2023-02-05T08:04:53.271Z,5.10
2023-02-05T08:07:21.192Z,4.60
2023-02-05T08:09:48.970Z,4.50
2023-02-05T08:12:16.758Z,5.15
2023-02-05T08:14:44.961Z,4.40
2023-02-05T08:17:12.781Z,4.40
2023-02-05T08:19:42.252Z,4.75
2023-02-05T08:22:09.994Z,6.55
2023-02-05T08:24:38.274Z,4.68
2023-02-05T08:27:06.047Z,5.00
2023-02-05T08:29:33.832Z,4.50
2023-02-05T08:32:01.905Z,4.88
2023-02-05T08:34:30.025Z,4.75
2023-02-05T08:36:59.874Z,4.55
2023-02-05T08:39:27.677Z,5.10
2023-02-05T08:41:57.035Z,5.35
2023-02-05T08:44:24.930Z,4.32
2023-02-05T08:46:52.783Z,4.90
2023-02-05T08:49:20.529Z,4.88
2023-02-05T08:51:48.909Z,3.80
2023-02-05T08:54:18.107Z,4.43
2023-02-05T08:56:47.016Z,4.82
2023-02-05T08:59:15.222Z,4.80
2023-02-05T09:01:46.473Z,5.00
2023-02-05T09:04:15.476Z,4.60
2023-02-05T09:06:43.892Z,4.07
2023-02-05T09:09:11.958Z,4.03
2023-02-05T09:11:41.300Z,4.70
2023-02-05T09:14:10.395Z,4.88
2023-02-05T09:16:38.551Z,3.97
2023-02-05T09:19:06.948Z,4.05
2023-02-05T09:21:35.499Z,4.13
2023-02-05T09:24:03.255Z,4.47
2023-02-05T09:26:30.997Z,4.18
2023-02-05T09:29:00.293Z,4.38
2023-02-05T09:31:28.581Z,4.40
2023-02-05T09:33:57.317Z,4.32
2023-02-05T09:36:25.445Z,4.22
2023-02-05T09:39:11.862Z,4.35
2023-02-05T09:41:52.120Z,4.00
2023-02-05T09:44:38.581Z,4.40
2023-02-05T09:47:12.699Z,4.72
2023-02-05T09:49:49.994Z,4.32
2023-02-05T09:52:21.702Z,4.20
2023-02-05T09:54:54.845Z,4.10
2023-02-05T09:57:32.686Z,4.55
2023-02-05T10:00:02.263Z,9.13
2023-02-05T10:02:37.691Z,4.78
2023-02-05T10:05:13.637Z,4.85
2023-02-05T10:07:51.097Z,3.97
2023-02-05T10:10:27.649Z,4.53
2023-02-05T10:13:28.704Z,4.20
2023-02-05T10:16:32.529Z,5.13
2023-02-05T10:19:18.458Z,4.63
2023-02-05T10:22:03.482Z,3.83
2023-02-05T10:24:49.487Z,3.57
2023-02-05T10:27:22.153Z,3.97
2023-02-05T10:29:59.142Z,3.40
2023-02-05T10:32:36.481Z,3.20
2023-02-05T10:35:21.273Z,3.23
2023-02-05T10:37:53.805Z,2.70
2023-02-05T10:40:26.343Z,2.73
2023-02-05T10:42:58.299Z,2.93
2023-02-05T10:45:28.099Z,5.73
2023-02-05T10:48:20.464Z,4.13
2023-02-05T10:50:56.177Z,2.93
2023-02-05T10:53:26.473Z,2.67
2023-02-05T10:55:54.665Z,2.60
2023-02-05T10:58:39.481Z,2.90
2023-02-05T11:01:08.590Z,2.60
2023-02-05T11:03:36.968Z,2.53
2023-02-05T11:06:11.181Z,3.10
2023-02-05T11:08:41.432Z,2.97
2023-02-05T11:11:21.930Z,3.00
2023-02-05T11:13:53.857Z,3.30
2023-02-05T11:16:23.193Z,3.10
2023-02-05T11:18:59.043Z,3.70
2023-02-05T11:21:47.771Z,4.23
2023-02-05T11:24:31.702Z,3.00
2023-02-05T11:27:28.070Z,2.90
2023-02-05T11:29:56.825Z,2.53
2023-02-05T11:32:34.464Z,3.33
2023-02-05T11:35:21.055Z,2.43
2023-02-05T11:37:56.498Z,3.03
2023-02-05T11:40:27.537Z,2.93
2023-02-05T11:43:02.105Z,2.63
2023-02-05T11:45:31.302Z,2.80
2023-02-05T11:48:02.109Z,3.27
2023-02-05T11:50:32.901Z,2.27
2023-02-05T11:53:16.250Z,2.40
2023-02-05T11:55:44.886Z,2.10
2023-02-05T11:58:36.969Z,2.83
2023-02-05T12:01:07.260Z,2.63
2023-02-05T12:03:36.344Z,3.23
2023-02-05T12:06:13.438Z,2.40
2023-02-05T12:08:48.910Z,2.77
2023-02-05T12:11:30.278Z,30.30
2023-02-05T12:14:08.178Z,4.37
2023-02-05T12:16:48.296Z,2.83
2023-02-05T12:19:21.549Z,2.43
2023-02-05T12:21:59.891Z,2.57
2023-02-05T12:24:55.336Z,3.20
2023-02-05T12:27:40.589Z,3.57
2023-02-05T12:30:31.151Z,3.17
2023-02-05T12:33:15.388Z,2.97
2023-02-05T12:35:56.189Z,2.93
2023-02-05T12:38:33.050Z,3.40
2023-02-05T12:41:14.961Z,3.83
2023-02-05T12:43:47.941Z,3.43
2023-02-05T12:46:38.908Z,2.93
2023-02-05T12:49:25.072Z,2.87
2023-02-05T12:52:07.791Z,2.90
2023-02-05T12:54:56.460Z,3.30
2023-02-05T12:57:30.760Z,3.00
2023-02-05T13:00:03.782Z,2.90
2023-02-05T13:02:37.863Z,3.40
2023-02-05T13:05:14.660Z,3.80
2023-02-05T13:07:46.633Z,2.70
2023-02-05T13:10:19.462Z,3.30
2023-02-05T13:12:52.890Z,3.27
2023-02-05T13:15:23.344Z,3.30
2023-02-05T13:17:58.413Z,3.07
2023-02-05T13:20:43.497Z,2.97
2023-02-05T13:23:29.612Z,3.50
2023-02-05T13:26:16.065Z,2.77
2023-02-05T13:28:48.055Z,2.57
2023-02-05T13:31:25.631Z,2.73
2023-02-05T13:33:56.733Z,2.67
2023-02-05T13:36:53.404Z,3.13
2023-02-05T13:39:42.364Z,2.70
2023-02-05T13:42:34.782Z,2.53
2023-02-05T13:45:28.276Z,2.63
2023-02-05T13:48:14.930Z,4.63
2023-02-05T13:51:10.117Z,3.37
2023-02-05T13:53:53.042Z,3.10
2023-02-05T13:56:38.019Z,2.63
2023-02-05T13:59:13.599Z,2.93
2023-02-05T14:01:45.985Z,2.67
2023-02-05T14:04:21.946Z,2.90
2023-02-05T14:06:59.146Z,3.40
2023-02-05T14:09:34.772Z,3.20
2023-02-05T14:12:06.376Z,2.27
2023-02-05T14:14:37.042Z,5.30
2023-02-05T14:17:59.521Z,3.53
2023-02-05T14:20:37.906Z,3.40
2023-02-05T14:23:15.344Z,2.10
2023-02-05T14:26:01.876Z,3.20
2023-02-05T14:28:44.072Z,3.23
2023-02-05T14:31:59.184Z,2.70
2023-02-05T14:34:46.090Z,2.60
2023-02-05T14:37:38.810Z,3.40
2023-02-05T14:40:26.039Z,2.43
2023-02-05T14:45:51.163Z,2.70
2023-02-05T14:48:25.049Z,2.80
2023-02-05T14:51:04.175Z,4.23
2023-02-05T14:53:35.387Z,3.37
2023-02-05T14:56:04.892Z,2.80
2023-02-05T14:58:35.984Z,2.80
2023-02-05T15:01:41.738Z,2.30
2023-02-05T15:04:24.309Z,2.37
2023-02-05T15:06:53.666Z,2.70
2023-02-05T15:09:30.196Z,2.83
2023-02-05T15:12:29.625Z,3.70
2023-02-05T15:14:58.683Z,3.90
2023-02-05T15:17:54.676Z,3.67
2023-02-05T15:20:27.819Z,2.10
2023-02-05T15:23:01.544Z,2.00
2023-02-05T15:25:37.542Z,3.77
2023-02-05T15:28:10.500Z,3.10
2023-02-05T15:30:53.256Z,3.13
2023-02-05T15:33:34.150Z,3.60
2023-02-05T15:36:08.704Z,2.67
2023-02-05T15:38:45.140Z,2.50
2023-02-05T15:41:17.135Z,2.80
2023-02-05T15:43:59.882Z,2.37
2023-02-05T15:46:29.866Z,2.77
2023-02-05T15:49:00.402Z,4.43
2023-02-05T15:51:32.429Z,3.23
2023-02-05T15:54:03.079Z,3.40
2023-02-05T15:56:37.191Z,2.95
2023-02-05T15:59:12.913Z,2.63
2023-02-05T16:01:46.173Z,4.00
2023-02-05T16:04:27.058Z,2.45
2023-02-05T16:06:55.032Z,3.23
2023-02-05T16:09:25.181Z,2.78
2023-02-05T16:11:56.353Z,2.33
2023-02-05T16:14:25.730Z,2.80
2023-02-05T16:17:03.418Z,3.80
2023-02-05T16:19:36.883Z,3.77
2023-02-05T16:22:25.256Z,2.50
2023-02-05T16:24:57.125Z,2.83
2023-02-05T16:27:34.784Z,2.30
2023-02-05T16:30:07.970Z,2.40
2023-02-05T16:32:40.070Z,3.77
2023-02-05T16:35:15.535Z,3.47
2023-02-05T16:37:43.825Z,2.97
2023-02-05T16:40:13.321Z,2.90
2023-02-05T16:42:46.132Z,3.03
2023-02-05T16:45:22.734Z,3.63
2023-02-05T16:48:20.731Z,5.28
2023-02-05T16:50:48.839Z,4.30
2023-02-05T16:53:21.427Z,3.88
2023-02-05T16:55:50.921Z,4.17
2023-02-05T16:58:22.994Z,3.80
2023-02-05T17:00:57.134Z,3.10
2023-02-05T17:03:27.137Z,4.57
2023-02-05T17:05:58.785Z,3.95
2023-02-05T17:08:32.783Z,5.25
2023-02-05T17:11:03.163Z,3.60
2023-02-05T17:13:38.755Z,3.97
2023-02-05T17:16:27.827Z,3.33
2023-02-05T17:18:58.626Z,3.65
2023-02-05T17:21:29.546Z,3.70
2023-02-05T17:23:59.708Z,5.50
2023-02-05T17:26:30.841Z,5.90
2023-02-05T17:29:06.011Z,4.38
2023-02-05T17:31:36.956Z,4.45
2023-02-05T17:34:05.406Z,4.03
2023-02-05T17:36:33.652Z,4.13
2023-02-05T17:39:01.408Z,4.93
2023-02-05T17:41:50.312Z,5.03
2023-02-05T17:44:19.494Z,5.15
2023-02-05T17:46:47.469Z,5.90
2023-02-05T17:49:15.192Z,5.85
2023-02-05T17:51:43.840Z,5.60
2023-02-05T17:54:14.228Z,4.93
2023-02-05T17:56:44.357Z,6.07
2023-02-05T17:59:14.532Z,5.43
2023-02-05T18:01:43.895Z,6.35
2023-02-05T18:04:11.879Z,5.80
2023-02-05T18:06:40.566Z,7.05
2023-02-05T18:09:08.914Z,9.60
2023-02-05T18:11:36.695Z,7.55
2023-02-05T18:14:04.478Z,6.95
2023-02-05T18:16:32.670Z,6.40
2023-02-05T18:19:01.780Z,12.85
2023-02-05T18:21:29.634Z,6.28
2023-02-05T18:23:57.530Z,6.95
2023-02-05T18:26:27.061Z,6.68
2023-02-05T18:28:54.885Z,7.50
2023-02-05T18:31:22.814Z,7.22
2023-02-05T18:33:56.735Z,7.60
2023-02-05T18:36:25.866Z,9.50
2023-02-05T18:38:53.806Z,8.95
2023-02-05T18:41:25.940Z,6.53
2023-02-05T18:43:55.645Z,7.55
2023-02-05T18:46:24.600Z,8.23
2023-02-05T18:48:53.229Z,8.30
2023-02-05T18:51:25.995Z,7.43
2023-02-05T18:53:55.251Z,7.57
2023-02-05T18:56:25.731Z,7.65
2023-02-05T18:58:56.394Z,7.18
2023-02-05T19:01:27.112Z,9.20
2023-02-05T19:03:55.180Z,8.13
2023-02-05T19:06:25.311Z,9.10
2023-02-05T19:08:55.724Z,8.93
2023-02-05T19:11:26.485Z,7.40
2023-02-05T19:13:58.432Z,7.30
2023-02-05T19:16:29.506Z,7.65
2023-02-05T19:18:57.892Z,9.13
2023-02-05T19:21:31.837Z,9.23
2023-02-05T19:24:05.619Z,10.15
2023-02-05T19:26:36.561Z,10.57
2023-02-05T19:29:10.112Z,12.15
2023-02-05T19:31:38.793Z,14.27
2023-02-05T19:34:08.033Z,13.77
2023-02-05T19:36:36.339Z,13.43
2023-02-05T19:39:08.190Z,13.43
2023-02-05T19:41:38.164Z,13.50
2023-02-05T19:44:08.577Z,13.82
2023-02-05T19:46:41.900Z,13.50
2023-02-05T19:49:13.459Z,13.45
2023-02-05T19:51:41.488Z,12.40
2023-02-05T19:54:09.270Z,12.88
2023-02-05T19:56:41.708Z,12.65
2023-02-05T19:59:09.956Z,11.65
2023-02-05T20:01:43.627Z,12.55
2023-02-05T20:04:16.010Z,12.85
2023-02-05T20:06:46.190Z,10.98
2023-02-05T20:09:16.290Z,10.25
2023-02-05T20:11:46.939Z,11.00
2023-02-05T20:14:15.427Z,9.80
2023-02-05T20:16:45.061Z,10.07
2023-02-05T20:19:14.863Z,10.82
2023-02-05T20:21:46.636Z,10.82
2023-02-05T20:24:16.282Z,10.15
2023-02-05T20:26:48.753Z,10.10
2023-02-05T20:29:36.833Z,10.75
2023-02-05T20:32:07.999Z,10.43
2023-02-05T20:34:40.646Z,10.68
2023-02-05T20:37:10.424Z,9.68
2023-02-05T20:39:41.968Z,10.82
2023-02-05T20:42:13.424Z,9.50
2023-02-05T20:44:42.228Z,9.52
2023-02-05T20:47:13.519Z,10.30
2023-02-05T20:49:45.049Z,9.88
2023-02-05T20:52:15.661Z,10.02
2023-02-05T20:54:43.391Z,9.80
2023-02-05T20:57:15.202Z,9.32
2023-02-05T20:59:45.726Z,9.43
2023-02-05T21:02:13.806Z,22.70
2023-02-05T21:04:41.972Z,9.65
2023-02-05T21:07:09.905Z,9.05
2023-02-05T21:09:37.779Z,8.50
2023-02-05T21:12:06.290Z,7.95
2023-02-05T21:14:35.439Z,7.68
2023-02-05T21:17:05.760Z,8.82
2023-02-05T21:19:33.607Z,9.27
2023-02-05T21:22:01.595Z,9.10
2023-02-05T21:24:29.319Z,8.82
2023-02-05T21:27:07.480Z,10.45
2023-02-05T21:29:36.694Z,10.65
2023-02-05T21:32:04.859Z,10.55
2023-02-05T21:34:35.849Z,10.27
2023-02-05T21:37:05.529Z,10.48
2023-02-05T21:39:37.257Z,10.25
2023-02-05T21:42:05.124Z,10.38
2023-02-05T21:44:35.318Z,10.05
2023-02-05T21:47:04.461Z,12.57
2023-02-05T21:49:32.361Z,11.77
2023-02-05T21:52:00.184Z,12.65
2023-02-05T21:54:28.142Z,13.93
2023-02-05T21:56:55.941Z,14.40
2023-02-05T21:59:23.960Z,11.07
2023-02-05T22:01:52.241Z,11.57
2023-02-05T22:04:21.409Z,11.57
2023-02-05T22:06:49.333Z,12.05
2023-02-05T22:09:17.806Z,13.75
2023-02-05T22:11:45.786Z,13.88
2023-02-05T22:14:13.632Z,12.52
2023-02-05T22:16:41.677Z,12.77
2023-02-05T22:19:10.392Z,11.68
2023-02-05T22:21:41.224Z,11.52
2023-02-05T22:24:13.861Z,11.45
2023-02-05T22:26:42.495Z,11.98
2023-02-05T22:29:13.361Z,12.32
2023-02-05T22:31:41.386Z,10.30
2023-02-05T22:34:09.575Z,11.50
2023-02-05T22:36:39.223Z,12.02
2023-02-05T22:39:07.380Z,12.13
2023-02-05T22:41:37.117Z,12.25
2023-02-05T22:44:06.490Z,12.15
2023-02-05T22:46:38.023Z,11.95
2023-02-05T22:49:06.575Z,10.20
2023-02-05T22:51:36.582Z,11.27
2023-02-05T22:54:06.709Z,10.60
2023-02-05T22:56:34.999Z,10.18
2023-02-05T22:59:03.533Z,11.75
2023-02-05T23:01:33.877Z,10.85
2023-02-05T23:04:05.871Z,10.82
2023-02-05T23:06:36.309Z,10.82
2023-02-05T23:09:08.110Z,10.90
2023-02-05T23:11:37.098Z,11.93
2023-02-05T23:14:06.253Z,10.13
2023-02-05T23:16:36.525Z,11.90
2023-02-05T23:19:07.352Z,12.00
2023-02-05T23:21:37.246Z,12.27
2023-02-05T23:24:07.360Z,12.95
2023-02-05T23:26:38.788Z,12.23
2023-02-05T23:29:07.853Z,12.20
2023-02-05T23:31:36.457Z,12.35
2023-02-05T23:34:05.095Z,13.82
2023-02-05T23:36:33.254Z,11.65
2023-02-05T23:39:01.335Z,11.43
2023-02-05T23:41:36.675Z,11.88
2023-02-05T23:44:07.427Z,11.25
2023-02-05T23:46:36.125Z,10.35
2023-02-05T23:49:04.089Z,11.30
2023-02-05T23:51:31.893Z,11.23
2023-02-05T23:53:59.916Z,9.98
2023-02-05T23:56:27.999Z,10.85
2023-02-05T23:58:57.187Z,10.38
